Date,TemperatureHighF,TemperatureAvgF,TemperatureLowF,DewpointHighF,DewpointAvgF,DewpointLowF,HumidityHigh,HumidityAvg,HumidityLow,PressureMaxIn,PressureMinIn,WindSpeedMaxMPH,WindSpeedAvgMPH,GustSpeedMaxMPH,PrecipitationSumIn
2013-2-1,66,66,66,46,45,44,48,47,46,30.15,30.02,0,0,15,0.00
2013-2-4,-200,0,200,-100,-100,-100,0,0,100,29.94,29.87,0,-999,0,0.00
2013-2-5,-200,0,200,-100,-100,-100,0,0,100,30.05,29.69,0,-999,0,0.00
2013-2-6,-200,0,200,-100,-100,-100,0,0,100,30.21,30.05,0,-999,0,0.00
2013-2-7,-200,0,200,-100,-100,-100,0,0,100,30.13,30.02,0,-999,0,0.00
2013-2-8,-200,0,200,-100,-100,-100,0,0,100,30.38,30.12,0,-999,0,0.00
2013-2-9,-200,0,200,-100,-100,-100,0,0,100,30.37,30.09,0,-999,0,0.00
2013-2-10,-200,0,200,-100,-100,-100,0,0,100,30.09,29.30,0,-999,0,0.00
2013-2-11,-200,0,200,-100,-100,-100,0,0,100,29.85,29.27,0,-999,0,0.00
2013-2-12,-200,0,200,-100,-100,-100,0,0,100,29.95,29.75,0,-999,0,0.00
2013-2-13,-200,0,200,-100,-100,-100,0,0,100,29.75,29.60,0,-999,0,0.00
2013-2-14,-200,0,200,-100,-100,-100,0,0,100,29.97,29.57,0,-999,0,0.00
2013-2-15,-200,0,200,-100,-100,-100,0,0,100,30.14,29.97,0,-999,0,0.00
2013-2-16,-200,0,200,-100,-100,-100,0,0,100,30.15,30.07,0,-999,0,0.00
2013-2-17,-200,0,200,-100,-100,-100,0,0,100,30.18,29.96,0,-999,0,0.00
2013-2-18,-200,0,200,-100,-100,-100,0,0,100,29.96,29.34,0,-999,0,0.00
2013-2-19,-200,0,200,-100,-100,-100,0,0,100,30.03,29.34,0,-999,0,0.00
2013-2-20,-200,0,200,-100,-100,-100,0,0,100,30.36,30.04,0,-999,0,0.00
2013-2-21,-200,0,200,-100,-100,-100,0,0,100,30.42,30.18,0,-999,0,0.00
2013-2-22,-200,0,200,-100,-100,-100,0,0,100,30.17,29.76,0,-999,0,0.00
2013-2-23,-200,0,200,-100,-100,-100,0,0,100,29.83,29.73,0,-999,0,0.00
2013-2-24,-200,0,200,-100,-100,-100,0,0,100,29.96,29.83,0,-999,0,0.00